createdAt,value
2023-04-17T00:01:20.685Z,11.85
2023-04-17T00:03:47.262Z,11.84
2023-04-17T00:06:13.475Z,11.82
2023-04-17T00:08:39.885Z,11.81
2023-04-17T00:11:08.523Z,11.79
2023-04-17T00:13:32.740Z,11.81
2023-04-17T00:15:59.107Z,11.83
2023-04-17T00:18:25.541Z,11.78
2023-04-17T00:20:51.901Z,11.72
2023-04-17T00:23:18.319Z,11.70
2023-04-17T00:25:44.773Z,11.68
2023-04-17T00:28:11.143Z,11.67
2023-04-17T00:30:37.565Z,11.66
2023-04-17T00:33:03.960Z,11.61
2023-04-17T00:35:30.315Z,11.64
2023-04-17T00:37:56.738Z,11.62
2023-04-17T00:40:23.150Z,11.62
2023-04-17T00:42:49.587Z,11.61
2023-04-17T00:45:15.998Z,11.59
2023-04-17T00:47:42.456Z,11.54
2023-04-17T00:50:08.896Z,11.44
2023-04-17T00:52:35.255Z,11.39
2023-04-17T00:55:01.708Z,11.39
2023-04-17T00:57:28.109Z,11.38
2023-04-17T00:59:54.498Z,11.31
2023-04-17T01:02:20.941Z,11.27
2023-04-17T01:04:47.256Z,11.29
2023-04-17T01:07:13.634Z,11.31
2023-04-17T01:09:40.031Z,11.33
2023-04-17T01:12:06.392Z,11.36
2023-04-17T01:14:32.778Z,11.36
2023-04-17T01:16:59.225Z,11.31
2023-04-17T01:19:25.620Z,11.32
2023-04-17T01:21:52.025Z,11.30
2023-04-17T01:24:18.450Z,11.31
2023-04-17T01:26:44.816Z,11.29
2023-04-17T01:29:11.335Z,11.29
2023-04-17T01:31:37.615Z,11.27
2023-04-17T01:34:03.987Z,11.27
2023-04-17T01:36:30.387Z,11.27
2023-04-17T01:38:56.748Z,11.26
2023-04-17T01:41:23.159Z,11.31
2023-04-17T01:43:49.563Z,11.30
2023-04-17T01:46:16.004Z,11.31
2023-04-17T01:48:42.324Z,11.30
2023-04-17T01:51:08.754Z,11.31
2023-04-17T01:53:35.153Z,11.36
2023-04-17T01:56:01.557Z,11.35
2023-04-17T01:58:27.974Z,11.33
2023-04-17T02:00:54.355Z,11.31
2023-04-17T02:03:20.917Z,11.34
2023-04-17T02:05:47.149Z,11.34
2023-04-17T02:08:13.565Z,11.41
2023-04-17T02:10:39.990Z,11.37
2023-04-17T02:13:06.360Z,11.36
2023-04-17T02:15:32.837Z,11.36
2023-04-17T02:17:59.231Z,11.40
2023-04-17T02:20:25.604Z,11.40
2023-04-17T02:22:52.025Z,11.38
2023-04-17T02:25:18.428Z,11.29
2023-04-17T02:27:44.839Z,11.23
2023-04-17T02:30:11.239Z,11.18
2023-04-17T02:32:37.729Z,11.18
2023-04-17T02:35:04.042Z,11.15
2023-04-17T02:37:30.432Z,11.13
2023-04-17T02:39:56.803Z,11.12
2023-04-17T02:42:23.192Z,11.10
2023-04-17T02:44:49.570Z,11.06
2023-04-17T02:47:15.990Z,11.00
2023-04-17T02:49:42.419Z,10.97
2023-04-17T02:52:08.826Z,10.93
2023-04-17T02:54:35.235Z,10.91
2023-04-17T02:57:01.670Z,10.93
2023-04-17T02:59:28.035Z,10.92
2023-04-17T03:01:54.535Z,10.88
2023-04-17T03:04:20.988Z,10.91
2023-04-17T03:06:47.325Z,10.97
2023-04-17T03:09:13.884Z,10.92
2023-04-17T03:11:40.189Z,10.90
2023-04-17T03:14:06.551Z,10.81
2023-04-17T03:16:32.992Z,10.80
2023-04-17T03:18:59.339Z,10.76
2023-04-17T03:21:25.772Z,10.80
2023-04-17T03:23:52.132Z,10.85
2023-04-17T03:26:18.603Z,10.85
2023-04-17T03:28:44.958Z,10.89
2023-04-17T03:31:11.381Z,10.90
2023-04-17T03:33:37.740Z,10.94
2023-04-17T03:36:04.116Z,10.99
2023-04-17T03:38:30.547Z,11.03
2023-04-17T03:40:56.955Z,11.07
2023-04-17T03:43:23.334Z,11.10
2023-04-17T03:45:49.813Z,11.13
2023-04-17T03:48:16.169Z,11.11
2023-04-17T03:50:42.577Z,11.10
2023-04-17T03:53:09.023Z,11.11
2023-04-17T03:55:35.410Z,11.07
2023-04-17T03:58:01.819Z,11.07
2023-04-17T04:00:28.234Z,11.02
2023-04-17T04:02:54.733Z,10.98
2023-04-17T04:05:21.076Z,10.93
2023-04-17T04:07:47.421Z,10.86
2023-04-17T04:10:13.823Z,10.82
2023-04-17T04:12:40.197Z,10.76
2023-04-17T04:15:06.572Z,10.68
2023-04-17T04:17:32.956Z,10.61
2023-04-17T04:19:59.379Z,10.66
2023-04-17T04:22:25.764Z,10.69
2023-04-17T04:24:52.181Z,10.70
2023-04-17T04:27:18.576Z,10.68
2023-04-17T04:29:44.941Z,10.75
2023-04-17T04:32:11.368Z,10.77
2023-04-17T04:34:37.847Z,10.76
2023-04-17T04:37:04.207Z,10.71
2023-04-17T04:39:30.633Z,10.66
2023-04-17T04:41:57.052Z,10.67
2023-04-17T04:44:23.486Z,10.72
2023-04-17T04:46:50.067Z,10.73
2023-04-17T04:49:16.362Z,10.75
2023-04-17T04:51:42.773Z,10.71
2023-04-17T04:54:09.140Z,10.74
2023-04-17T04:56:35.558Z,10.83
2023-04-17T04:59:01.946Z,10.87
2023-04-17T05:01:28.425Z,10.89
2023-04-17T05:03:54.979Z,10.88
2023-04-17T05:06:21.322Z,10.94
2023-04-17T05:08:47.731Z,11.06
2023-04-17T05:11:14.101Z,11.10
2023-04-17T05:13:40.470Z,11.16
2023-04-17T05:16:06.917Z,11.25
2023-04-17T05:18:33.254Z,11.31
2023-04-17T05:20:59.640Z,11.37
2023-04-17T05:23:26.053Z,11.48
2023-04-17T05:25:52.469Z,11.60
2023-04-17T05:28:18.848Z,11.68
2023-04-17T05:30:45.304Z,11.69
2023-04-17T05:33:11.767Z,11.77
2023-04-17T05:35:38.107Z,11.83
2023-04-17T05:38:04.586Z,11.85
2023-04-17T05:40:31.007Z,11.86
2023-04-17T05:42:57.384Z,11.93
2023-04-17T05:45:25.517Z,11.92
2023-04-17T05:47:50.431Z,12.01
2023-04-17T05:50:16.807Z,11.97
2023-04-17T05:52:43.235Z,11.96
2023-04-17T05:55:09.647Z,12.01
2023-04-17T05:57:36.090Z,12.10
2023-04-17T06:00:02.467Z,12.22
2023-04-17T06:02:28.995Z,12.32
2023-04-17T06:04:55.447Z,12.35
2023-04-17T06:07:21.762Z,12.41
2023-04-17T06:09:48.134Z,12.48
2023-04-17T06:12:14.549Z,12.48
2023-04-17T06:14:40.928Z,12.48
2023-04-17T06:17:07.428Z,12.43
2023-04-17T06:19:33.752Z,12.43
2023-04-17T06:22:00.190Z,12.38
2023-04-17T06:24:26.611Z,12.39
2023-04-17T06:26:59.377Z,12.41
2023-04-17T06:29:26.957Z,12.35
2023-04-17T06:31:54.637Z,12.35
2023-04-17T06:34:21.064Z,12.39
2023-04-17T06:36:47.422Z,12.44
2023-04-17T06:39:16.471Z,12.46
2023-04-17T06:41:45.221Z,12.51
2023-04-17T06:44:11.605Z,12.56
2023-04-17T06:46:38.111Z,12.64
2023-04-17T06:49:04.496Z,12.76
2023-04-17T06:51:31.062Z,12.80
2023-04-17T06:53:57.526Z,12.89
2023-04-17T06:56:24.064Z,13.06
2023-04-17T06:58:50.470Z,13.15
2023-04-17T07:01:16.868Z,13.22
2023-04-17T07:03:43.616Z,13.44
2023-04-17T07:06:09.815Z,13.52
2023-04-17T07:08:36.172Z,13.61
2023-04-17T07:11:02.554Z,13.73
2023-04-17T07:13:28.960Z,13.80
2023-04-17T07:15:55.466Z,13.77
2023-04-17T07:18:21.874Z,13.80
2023-04-17T07:20:48.307Z,13.98
2023-04-17T07:23:14.743Z,14.00
2023-04-17T07:25:41.091Z,14.09
2023-04-17T07:28:07.612Z,14.12
2023-04-17T07:30:33.987Z,14.20
2023-04-17T07:33:00.402Z,14.41
2023-04-17T07:35:26.865Z,14.59
2023-04-17T07:37:53.283Z,14.48
2023-04-17T07:40:19.692Z,14.46
2023-04-17T07:42:46.184Z,14.46
2023-04-17T07:45:12.561Z,14.39
2023-04-17T07:47:41.157Z,14.28
2023-04-17T07:50:07.569Z,14.14
2023-04-17T07:52:33.966Z,14.17
2023-04-17T07:55:00.342Z,13.97
2023-04-17T07:57:26.838Z,13.97
2023-04-17T07:59:53.225Z,14.02
2023-04-17T08:02:20.691Z,14.07
2023-04-17T08:04:46.126Z,14.31
2023-04-17T08:07:12.392Z,14.37
2023-04-17T08:09:39.112Z,14.35
2023-04-17T08:12:05.539Z,14.45
2023-04-17T08:14:32.261Z,14.76
2023-04-17T08:16:58.700Z,14.70
2023-04-17T08:19:25.083Z,14.77
2023-04-17T08:21:51.505Z,14.72
2023-04-17T08:24:19.793Z,14.68
2023-04-17T08:26:44.362Z,14.74
2023-04-17T08:29:10.986Z,14.59
2023-04-17T08:31:37.175Z,14.56
2023-04-17T08:34:13.635Z,14.55
2023-04-17T08:36:32.927Z,14.52
2023-04-17T08:38:59.374Z,14.64
2023-04-17T08:41:25.742Z,14.68
2023-04-17T08:43:52.120Z,14.85
2023-04-17T08:46:18.685Z,14.90
2023-04-17T08:48:45.037Z,14.95
2023-04-17T08:51:11.470Z,14.90
2023-04-17T08:53:38.046Z,14.84
2023-04-17T08:56:06.255Z,14.93
2023-04-17T08:58:31.023Z,14.81
2023-04-17T09:00:57.468Z,14.88
2023-04-17T09:03:24.371Z,14.95
2023-04-17T09:05:50.491Z,15.01
2023-04-17T09:08:16.882Z,15.16
2023-04-17T09:10:43.349Z,15.26
2023-04-17T09:13:09.985Z,15.17
2023-04-17T09:15:36.517Z,15.25
2023-04-17T09:18:02.807Z,15.46
2023-04-17T09:20:29.400Z,15.74
2023-04-17T09:22:55.956Z,15.73
2023-04-17T09:25:22.367Z,15.65
2023-04-17T09:27:48.744Z,15.66
2023-04-17T09:30:15.237Z,15.42
2023-04-17T09:32:41.614Z,15.04
2023-04-17T09:35:07.958Z,14.82
2023-04-17T09:37:35.440Z,13.89
2023-04-17T09:40:01.889Z,13.41
2023-04-17T09:42:28.474Z,13.34
2023-04-17T09:44:54.839Z,13.35
2023-04-17T09:47:21.311Z,13.53
2023-04-17T09:49:49.830Z,13.74
2023-04-17T09:52:16.314Z,13.93
2023-04-17T09:54:42.711Z,14.13
2023-04-17T09:57:09.173Z,14.35
2023-04-17T09:59:35.813Z,14.62
2023-04-17T10:02:02.373Z,14.78
2023-04-17T10:04:28.638Z,14.91
2023-04-17T10:06:54.970Z,14.81
2023-04-17T10:09:21.816Z,14.87
2023-04-17T10:11:48.284Z,14.99
2023-04-17T10:14:14.970Z,15.22
2023-04-17T10:16:43.578Z,15.64
2023-04-17T10:19:09.860Z,16.13
2023-04-17T10:21:36.229Z,16.45
2023-04-17T10:24:03.108Z,16.49
2023-04-17T10:26:29.698Z,16.40
2023-04-17T10:28:56.156Z,16.28
2023-04-17T10:31:22.734Z,16.15
2023-04-17T10:33:49.090Z,15.93
2023-04-17T10:36:15.803Z,15.96
2023-04-17T10:38:43.345Z,16.25
2023-04-17T10:41:09.814Z,16.27
2023-04-17T10:43:36.546Z,16.65
2023-04-17T10:46:03.017Z,17.14
2023-04-17T10:48:29.631Z,16.56
2023-04-17T10:50:56.057Z,16.01
2023-04-17T10:53:22.560Z,15.63
2023-04-17T10:55:48.938Z,15.74
2023-04-17T10:58:15.560Z,15.73
2023-04-17T11:00:41.964Z,15.73
2023-04-17T11:03:08.655Z,15.77
2023-04-17T11:05:34.955Z,15.73
2023-04-17T11:08:01.697Z,15.68
2023-04-17T11:10:28.189Z,15.69
2023-04-17T11:12:54.660Z,15.71
2023-04-17T11:15:21.062Z,15.49
2023-04-17T11:17:47.648Z,15.34
2023-04-17T11:20:13.964Z,15.41
2023-04-17T11:22:40.476Z,15.45
2023-04-17T11:25:06.886Z,15.36
2023-04-17T11:27:33.234Z,15.35
2023-04-17T11:29:59.604Z,15.37
2023-04-17T11:32:26.008Z,15.42
2023-04-17T11:34:52.403Z,15.37
2023-04-17T11:37:18.969Z,15.40
2023-04-17T11:39:45.526Z,15.51
2023-04-17T11:42:11.911Z,15.50
2023-04-17T11:44:38.266Z,15.48
2023-04-17T11:47:04.652Z,15.41
2023-04-17T11:49:31.060Z,15.29
2023-04-17T11:52:00.561Z,15.32
2023-04-17T11:54:27.100Z,15.45
2023-04-17T11:56:53.803Z,15.55
2023-04-17T11:59:20.195Z,15.71
2023-04-17T12:01:46.617Z,15.88
2023-04-17T12:04:13.272Z,16.01
2023-04-17T12:06:39.522Z,16.18
2023-04-17T12:09:05.919Z,16.10
2023-04-17T12:11:32.281Z,16.02
2023-04-17T12:13:58.716Z,16.14
2023-04-17T12:16:25.177Z,16.23
2023-04-17T12:18:51.481Z,16.31
2023-04-17T12:21:17.958Z,16.29
2023-04-17T12:23:44.309Z,16.39
2023-04-17T12:26:10.711Z,16.59
2023-04-17T12:28:37.135Z,16.60
2023-04-17T12:31:03.527Z,16.44
2023-04-17T12:33:29.885Z,16.43
2023-04-17T12:35:56.287Z,16.28
2023-04-17T12:38:22.704Z,16.20
2023-04-17T12:40:49.116Z,16.09
2023-04-17T12:43:15.548Z,16.02
2023-04-17T12:45:42.536Z,16.03
2023-04-17T12:48:08.323Z,16.02
2023-04-17T12:50:36.899Z,16.02
2023-04-17T12:53:03.310Z,16.07
2023-04-17T12:55:29.714Z,16.00
2023-04-17T12:57:56.086Z,15.92
2023-04-17T13:00:22.458Z,15.80
2023-04-17T13:02:49.027Z,15.60
2023-04-17T13:05:15.293Z,15.53
2023-04-17T13:07:41.715Z,15.47
2023-04-17T13:10:08.135Z,15.68
2023-04-17T13:12:34.799Z,15.74
2023-04-17T13:15:01.219Z,15.84
2023-04-17T13:17:27.680Z,15.80
2023-04-17T13:19:54.122Z,15.84
2023-04-17T13:22:20.542Z,15.93
2023-04-17T13:24:47.051Z,15.94
2023-04-17T13:27:13.482Z,15.98
2023-04-17T13:29:40.007Z,16.09
2023-04-17T13:32:06.452Z,16.17
2023-04-17T13:34:32.821Z,16.27
2023-04-17T13:36:59.249Z,16.19
2023-04-17T13:39:25.765Z,15.92
2023-04-17T13:41:52.128Z,15.84
2023-04-17T13:44:18.556Z,15.88
2023-04-17T13:46:45.311Z,15.85
2023-04-17T13:49:11.938Z,15.76
2023-04-17T13:51:37.977Z,15.78
2023-04-17T13:54:04.413Z,15.73
2023-04-17T13:56:31.246Z,15.65
2023-04-17T13:58:57.684Z,15.67
2023-04-17T14:01:24.065Z,15.72
2023-04-17T14:03:50.579Z,15.78
2023-04-17T14:06:16.921Z,15.94
2023-04-17T14:08:44.361Z,16.07
2023-04-17T14:11:09.714Z,16.29
2023-04-17T14:13:36.142Z,16.38
2023-04-17T14:16:02.647Z,16.27
2023-04-17T14:18:29.048Z,16.31
2023-04-17T14:20:55.546Z,16.20
2023-04-17T14:23:21.986Z,16.18
2023-04-17T14:25:48.421Z,16.13
2023-04-17T14:28:14.905Z,16.07
2023-04-17T14:30:41.371Z,16.15
2023-04-17T14:33:07.760Z,16.18
2023-04-17T14:35:34.281Z,16.27
2023-04-17T14:38:00.807Z,16.32
2023-04-17T14:40:27.259Z,16.36
2023-04-17T14:42:54.832Z,16.33
2023-04-17T14:45:20.164Z,16.21
2023-04-17T14:47:46.658Z,16.12
2023-04-17T14:50:12.988Z,16.00
2023-04-17T14:52:40.376Z,15.99
2023-04-17T14:55:06.803Z,16.00
2023-04-17T14:57:33.651Z,15.98
2023-04-17T15:00:00.405Z,16.03
2023-04-17T15:02:26.712Z,16.03
2023-04-17T15:04:52.985Z,16.01
2023-04-17T15:07:21.683Z,15.93
2023-04-17T15:09:48.107Z,15.93
2023-04-17T15:12:16.933Z,15.99
2023-04-17T15:14:43.317Z,15.95
2023-04-17T15:17:09.757Z,15.94
2023-04-17T15:19:36.683Z,15.94
2023-04-17T15:22:03.181Z,15.91
2023-04-17T15:24:29.497Z,15.88
2023-04-17T15:26:55.908Z,15.74
2023-04-17T15:29:22.454Z,15.74
2023-04-17T15:31:48.915Z,15.79
2023-04-17T15:34:15.263Z,15.77
2023-04-17T15:36:41.688Z,15.70
2023-04-17T15:39:08.115Z,15.55
2023-04-17T15:41:34.467Z,15.48
2023-04-17T15:44:00.937Z,15.43
2023-04-17T15:46:27.408Z,15.39
2023-04-17T15:49:07.468Z,15.38
2023-04-17T15:51:20.660Z,15.31
2023-04-17T15:53:47.038Z,15.20
2023-04-17T15:56:13.426Z,15.14
2023-04-17T15:58:40.013Z,15.13
2023-04-17T16:01:06.462Z,15.06
2023-04-17T16:03:32.913Z,15.02
2023-04-17T16:05:59.364Z,15.02
2023-04-17T16:08:25.778Z,14.98
2023-04-17T16:10:52.185Z,15.04
2023-04-17T16:13:18.753Z,15.07
2023-04-17T16:15:45.242Z,15.06
2023-04-17T16:18:13.716Z,15.06
2023-04-17T16:20:40.092Z,15.00
2023-04-17T16:23:06.460Z,14.94
2023-04-17T16:25:33.393Z,14.91
2023-04-17T16:27:59.734Z,14.90
2023-04-17T16:30:26.168Z,14.92
2023-04-17T16:32:52.661Z,14.89
2023-04-17T16:35:18.964Z,14.85
2023-04-17T16:37:45.409Z,14.85
2023-04-17T16:40:11.791Z,14.83
2023-04-17T16:42:38.154Z,14.79
2023-04-17T16:45:04.526Z,14.79
2023-04-17T16:47:31.131Z,14.80
2023-04-17T16:49:57.455Z,14.80
2023-04-17T16:52:24.594Z,14.79
2023-04-17T16:54:51.067Z,14.77
2023-04-17T16:57:17.464Z,14.80
2023-04-17T16:59:43.840Z,14.77
2023-04-17T17:02:10.487Z,14.72
2023-04-17T17:04:36.850Z,14.67
2023-04-17T17:07:03.279Z,14.54
2023-04-17T17:09:29.653Z,14.37
2023-04-17T17:11:56.071Z,14.22
2023-04-17T17:14:22.566Z,14.12
2023-04-17T17:16:49.207Z,14.06
2023-04-17T17:19:15.568Z,14.03
2023-04-17T17:21:42.035Z,13.90
2023-04-17T17:24:08.397Z,13.85
2023-04-17T17:26:34.904Z,13.84
2023-04-17T17:29:01.325Z,13.75
2023-04-17T17:31:27.776Z,13.71
2023-04-17T17:33:54.119Z,13.64
2023-04-17T17:36:20.579Z,13.56
2023-04-17T17:38:46.887Z,13.51
2023-04-17T17:41:13.332Z,13.45
2023-04-17T17:43:39.748Z,13.39
2023-04-17T17:46:06.240Z,13.34
2023-04-17T17:48:32.594Z,13.32
2023-04-17T17:50:58.973Z,13.27
2023-04-17T17:53:27.129Z,13.25
2023-04-17T17:55:51.927Z,13.19
2023-04-17T17:58:18.416Z,13.19
2023-04-17T18:00:44.884Z,13.19
2023-04-17T18:03:11.740Z,13.19
2023-04-17T18:05:38.202Z,13.21
2023-04-17T18:08:04.607Z,13.21
2023-04-17T18:10:30.952Z,13.20
2023-04-17T18:12:57.491Z,13.18
2023-04-17T18:15:23.912Z,13.15
2023-04-17T18:17:50.323Z,13.15
2023-04-17T18:20:16.760Z,13.16
2023-04-17T18:22:43.116Z,13.16
2023-04-17T18:25:09.513Z,13.23
2023-04-17T18:27:35.918Z,13.27
2023-04-17T18:30:02.335Z,13.25
2023-04-17T18:32:28.816Z,13.24
2023-04-17T18:34:55.228Z,13.21
2023-04-17T18:37:21.590Z,13.15
2023-04-17T18:39:48.496Z,13.12
2023-04-17T18:42:14.914Z,13.11
2023-04-17T18:44:41.318Z,13.10
2023-04-17T18:47:07.808Z,13.04
2023-04-17T18:49:34.228Z,13.00
2023-04-17T18:52:02.420Z,12.93
2023-04-17T18:54:28.839Z,12.90
2023-04-17T18:56:55.223Z,12.91
2023-04-17T18:59:21.913Z,12.93
2023-04-17T19:01:48.269Z,12.98
2023-04-17T19:04:14.891Z,13.00
2023-04-17T19:06:41.158Z,13.02
2023-04-17T19:09:07.534Z,12.97
2023-04-17T19:11:33.897Z,12.96
2023-04-17T19:14:00.327Z,12.92
2023-04-17T19:16:26.783Z,12.91
2023-04-17T19:18:53.139Z,12.90
2023-04-17T19:21:19.878Z,12.86
2023-04-17T19:23:46.320Z,12.83
2023-04-17T19:26:12.739Z,12.85
2023-04-17T19:28:39.164Z,12.86
2023-04-17T19:31:08.021Z,12.89
2023-04-17T19:33:35.448Z,12.86
2023-04-17T19:36:01.810Z,12.81
2023-04-17T19:38:28.220Z,12.81
2023-04-17T19:40:54.615Z,12.83
2023-04-17T19:43:21.142Z,12.80
2023-04-17T19:45:47.506Z,12.82
2023-04-17T19:48:13.831Z,12.85
2023-04-17T19:50:40.274Z,12.87
2023-04-17T19:53:06.645Z,12.89
2023-04-17T19:55:33.068Z,12.84
2023-04-17T19:57:59.457Z,12.81
2023-04-17T20:00:25.828Z,12.79
2023-04-17T20:02:52.330Z,12.76
2023-04-17T20:05:18.657Z,12.75
2023-04-17T20:07:45.074Z,12.72
2023-04-17T20:10:11.456Z,12.68
2023-04-17T20:12:38.852Z,12.69
2023-04-17T20:15:05.226Z,12.72
2023-04-17T20:17:31.633Z,12.66
2023-04-17T20:19:57.986Z,12.68
2023-04-17T20:22:24.358Z,12.75
2023-04-17T20:24:50.830Z,12.77
2023-04-17T20:27:17.194Z,12.74
2023-04-17T20:29:43.526Z,12.74
2023-04-17T20:32:09.935Z,12.74
2023-04-17T20:34:36.333Z,12.76
2023-04-17T20:37:02.714Z,12.76
2023-04-17T20:39:29.102Z,12.75
2023-04-17T20:41:55.495Z,12.74
2023-04-17T20:44:21.999Z,12.69
2023-04-17T20:46:48.429Z,12.69
2023-04-17T20:49:14.860Z,12.62
2023-04-17T20:51:41.193Z,12.60
2023-04-17T20:54:07.556Z,12.59
2023-04-17T20:56:33.929Z,12.57
2023-04-17T20:59:00.362Z,12.54
2023-04-17T21:01:26.805Z,12.55
2023-04-17T21:03:53.291Z,12.53
2023-04-17T21:06:19.585Z,12.54
2023-04-17T21:08:45.976Z,12.54
2023-04-17T21:11:12.366Z,12.54
2023-04-17T21:13:39.006Z,12.55
2023-04-17T21:16:05.463Z,12.60
2023-04-17T21:18:33.321Z,12.65
2023-04-17T21:20:59.844Z,12.66
2023-04-17T21:23:26.216Z,12.66
2023-04-17T21:25:52.649Z,12.64
2023-04-17T21:28:19.043Z,12.62
2023-04-17T21:30:45.414Z,12.63
2023-04-17T21:33:11.831Z,12.58
2023-04-17T21:35:38.240Z,12.58
2023-04-17T21:38:04.652Z,12.58
2023-04-17T21:40:33.494Z,12.56
2023-04-17T21:42:58.496Z,12.56
2023-04-17T21:45:25.014Z,12.63
2023-04-17T21:47:51.394Z,12.64
2023-04-17T21:50:17.775Z,12.65
2023-04-17T21:52:44.325Z,12.59
2023-04-17T21:55:10.734Z,12.55
2023-04-17T21:57:37.098Z,12.51
2023-04-17T22:00:03.473Z,12.44
2023-04-17T22:02:29.908Z,12.41
2023-04-17T22:04:56.356Z,12.46
2023-04-17T22:07:23.000Z,12.47
2023-04-17T22:09:49.411Z,12.48
2023-04-17T22:12:15.817Z,12.45
2023-04-17T22:14:42.240Z,12.45
2023-04-17T22:17:08.629Z,12.44
2023-04-17T22:19:36.567Z,12.44
2023-04-17T22:22:02.981Z,12.44
2023-04-17T22:24:29.405Z,12.42
2023-04-17T22:26:55.757Z,12.40
2023-04-17T22:29:22.171Z,12.41
2023-04-17T22:31:48.536Z,12.38
2023-04-17T22:34:15.131Z,12.43
2023-04-17T22:36:41.399Z,12.46
2023-04-17T22:39:07.767Z,12.40
2023-04-17T22:41:34.134Z,12.38
2023-04-17T22:44:00.511Z,12.37
2023-04-17T22:46:26.911Z,12.36
2023-04-17T22:48:53.252Z,12.37
2023-04-17T22:51:19.613Z,12.31
2023-04-17T22:53:46.012Z,12.30
2023-04-17T22:56:12.422Z,12.29
2023-04-17T22:58:38.839Z,12.28
2023-04-17T23:01:05.252Z,12.28
2023-04-17T23:03:31.634Z,12.24
2023-04-17T23:05:58.009Z,12.18
2023-04-17T23:08:24.480Z,12.15
2023-04-17T23:10:50.886Z,12.14
2023-04-17T23:13:17.325Z,12.12
2023-04-17T23:15:43.808Z,12.16
2023-04-17T23:18:10.198Z,12.15
2023-04-17T23:20:36.528Z,12.15
2023-04-17T23:23:03.014Z,12.18
2023-04-17T23:25:29.406Z,12.21
2023-04-17T23:27:55.772Z,12.24
2023-04-17T23:30:22.188Z,12.27
2023-04-17T23:32:48.720Z,12.27
2023-04-17T23:35:15.051Z,12.26
2023-04-17T23:37:41.484Z,12.26
2023-04-17T23:40:07.915Z,12.26
2023-04-17T23:42:34.300Z,12.24
2023-04-17T23:45:00.657Z,12.17
2023-04-17T23:47:27.107Z,12.08
2023-04-17T23:49:55.725Z,11.99
2023-04-17T23:52:22.142Z,11.95
2023-04-17T23:54:49.627Z,11.92
2023-04-17T23:57:16.052Z,11.88
2023-04-17T23:59:42.412Z,11.78
